createdAt,value
2023-04-10T00:01:40.593Z,9.90
2023-04-10T00:04:09.870Z,9.80
2023-04-10T00:06:38.847Z,9.80
2023-04-10T00:09:07.301Z,9.80
2023-04-10T00:11:36.099Z,9.80
2023-04-10T00:14:05.745Z,9.70
2023-04-10T00:16:34.517Z,9.70
2023-04-10T00:19:03.089Z,9.70
2023-04-10T00:21:31.541Z,9.70
2023-04-10T00:23:59.865Z,9.70
2023-04-10T00:26:28.299Z,9.70
2023-04-10T00:28:56.852Z,9.70
2023-04-10T00:31:26.651Z,9.60
2023-04-10T00:33:56.310Z,9.60
2023-04-10T00:36:26.015Z,9.60
2023-04-10T00:38:54.334Z,9.60
2023-04-10T00:41:24.095Z,9.50
2023-04-10T00:43:56.497Z,9.50
2023-04-10T00:46:26.550Z,9.60
2023-04-10T00:48:56.498Z,9.60
2023-04-10T00:51:24.854Z,9.50
2023-04-10T00:53:54.696Z,9.50
2023-04-10T00:56:24.960Z,9.50
2023-04-10T00:58:53.385Z,9.50
2023-04-10T01:01:22.065Z,9.40
2023-04-10T01:03:53.437Z,9.50
2023-04-10T01:06:32.984Z,9.50
2023-04-10T01:09:09.597Z,9.40
2023-04-10T01:11:48.350Z,9.40
2023-04-10T01:14:28.798Z,9.40
2023-04-10T01:17:02.855Z,9.30
2023-04-10T01:20:05.148Z,9.30
2023-04-10T01:22:47.029Z,9.40
2023-04-10T01:25:38.416Z,9.40
2023-04-10T01:28:20.771Z,9.40
2023-04-10T01:30:53.970Z,9.40
2023-04-10T01:33:27.834Z,9.40
2023-04-10T01:36:01.113Z,9.30
2023-04-10T01:38:31.798Z,9.30
2023-04-10T01:41:02.400Z,9.40
2023-04-10T01:43:32.172Z,9.40
2023-04-10T01:46:03.412Z,9.40
2023-04-10T01:48:32.158Z,9.30
2023-04-10T01:51:02.297Z,9.30
2023-04-10T01:53:32.773Z,9.30
2023-04-10T01:56:03.005Z,9.30
2023-04-10T01:58:31.924Z,9.30
2023-04-10T02:01:01.806Z,9.30
2023-04-10T02:03:30.486Z,9.30
2023-04-10T02:06:15.620Z,9.30
2023-04-10T02:08:50.046Z,9.30
2023-04-10T02:11:29.664Z,9.30
2023-04-10T02:14:02.447Z,9.30
2023-04-10T02:16:34.462Z,9.30
2023-04-10T02:19:04.343Z,9.30
2023-04-10T02:21:34.114Z,9.30
2023-04-10T02:24:02.901Z,9.30
2023-04-10T02:26:31.469Z,9.30
2023-04-10T02:28:59.893Z,9.30
2023-04-10T02:31:28.393Z,9.20
2023-04-10T02:33:58.103Z,9.20
2023-04-10T02:36:26.414Z,9.30
2023-04-10T02:38:54.859Z,9.20
2023-04-10T02:41:24.398Z,9.20
2023-04-10T02:43:53.032Z,9.20
2023-04-10T02:46:21.686Z,9.20
2023-04-10T02:48:49.940Z,9.20
2023-04-10T02:51:19.472Z,9.20
2023-04-10T02:53:48.767Z,9.20
2023-04-10T02:56:18.631Z,9.20
2023-04-10T02:58:47.908Z,9.10
2023-04-10T03:01:16.343Z,9.20
2023-04-10T03:03:45.000Z,9.20
2023-04-10T03:06:13.588Z,9.10
2023-04-10T03:08:43.352Z,9.10
2023-04-10T03:11:11.791Z,9.10
2023-04-10T03:13:40.110Z,9.10
2023-04-10T03:16:09.049Z,9.00
2023-04-10T03:18:37.476Z,9.00
2023-04-10T03:21:07.475Z,9.00
2023-04-10T03:23:36.035Z,8.90
2023-04-10T03:26:06.274Z,8.90
2023-04-10T03:28:36.752Z,8.90
2023-04-10T03:31:06.810Z,8.80
2023-04-10T03:33:35.524Z,8.80
2023-04-10T03:36:04.037Z,8.80
2023-04-10T03:38:32.559Z,8.80
2023-04-10T03:41:01.245Z,8.80
2023-04-10T03:43:31.639Z,8.70
2023-04-10T03:46:00.155Z,8.70
2023-04-10T03:48:30.738Z,8.70
2023-04-10T03:50:59.573Z,8.70
2023-04-10T03:53:28.001Z,8.70
2023-04-10T03:55:56.467Z,8.70
2023-04-10T03:58:24.917Z,8.70
2023-04-10T04:00:54.773Z,8.70
2023-04-10T04:03:23.441Z,8.70
2023-04-10T04:05:52.487Z,8.70
2023-04-10T04:08:20.942Z,8.70
2023-04-10T04:10:49.724Z,8.70
2023-04-10T04:13:18.070Z,8.60
2023-04-10T04:15:47.970Z,8.60
2023-04-10T04:18:17.690Z,8.60
2023-04-10T04:20:46.025Z,8.70
2023-04-10T04:23:14.588Z,8.60
2023-04-10T04:25:43.880Z,8.70
2023-04-10T04:28:13.767Z,8.60
2023-04-10T04:30:42.295Z,8.60
2023-04-10T04:33:10.734Z,8.60
2023-04-10T04:35:40.555Z,8.60
2023-04-10T04:38:09.177Z,8.60
2023-04-10T04:40:37.740Z,8.50
2023-04-10T04:43:06.186Z,8.60
2023-04-10T04:45:35.005Z,8.60
2023-04-10T04:48:03.699Z,8.60
2023-04-10T04:50:32.224Z,8.60
2023-04-10T04:53:02.239Z,8.60
2023-04-10T04:55:30.798Z,8.60
2023-04-10T04:57:59.344Z,8.60
2023-04-10T05:00:27.793Z,8.60
2023-04-10T05:02:56.428Z,8.50
2023-04-10T05:05:25.028Z,8.60
2023-04-10T05:07:53.359Z,8.50
2023-04-10T05:10:23.345Z,8.50
2023-04-10T05:12:51.786Z,8.50
2023-04-10T05:15:20.477Z,8.50
2023-04-10T05:17:51.171Z,8.50
2023-04-10T05:20:21.830Z,8.50
2023-04-10T05:22:50.478Z,8.50
2023-04-10T05:25:19.150Z,8.50
2023-04-10T05:27:48.811Z,8.50
2023-04-10T05:30:17.354Z,8.50
2023-04-10T05:32:46.229Z,8.50
2023-04-10T05:35:14.966Z,8.50
2023-04-10T05:37:43.642Z,8.60
2023-04-10T05:40:12.829Z,8.60
2023-04-10T05:42:41.355Z,8.70
2023-04-10T05:45:12.203Z,8.70
2023-04-10T05:47:40.698Z,8.80
2023-04-10T05:50:09.563Z,8.80
2023-04-10T05:52:38.133Z,8.80
2023-04-10T05:55:07.790Z,8.80
2023-04-10T05:57:36.449Z,8.80
2023-04-10T06:00:05.265Z,8.90
2023-04-10T06:02:35.987Z,8.90
2023-04-10T06:05:04.815Z,8.90
2023-04-10T06:07:33.573Z,8.90
2023-04-10T06:10:02.540Z,9.00
2023-04-10T06:12:30.932Z,9.00
2023-04-10T06:14:59.497Z,9.00
2023-04-10T06:17:28.927Z,9.00
2023-04-10T06:20:01.085Z,9.00
2023-04-10T06:22:29.730Z,9.10
2023-04-10T06:24:58.412Z,9.10
2023-04-10T06:27:26.984Z,9.10
2023-04-10T06:29:55.411Z,9.20
2023-04-10T06:32:24.007Z,9.20
2023-04-10T06:34:53.042Z,9.30
2023-04-10T06:37:29.267Z,9.30
2023-04-10T06:40:16.084Z,9.40
2023-04-10T06:42:44.618Z,9.40
2023-04-10T06:45:13.437Z,9.50
2023-04-10T06:47:42.001Z,9.50
2023-04-10T06:50:11.259Z,9.60
2023-04-10T06:52:40.921Z,9.70
2023-04-10T06:55:09.952Z,9.70
2023-04-10T06:57:38.520Z,9.80
2023-04-10T07:00:08.505Z,9.80
2023-04-10T07:02:36.996Z,9.90
2023-04-10T07:05:05.751Z,9.90
2023-04-10T07:07:34.318Z,10.00
2023-04-10T07:10:04.435Z,10.10
2023-04-10T07:12:32.877Z,10.10
2023-04-10T07:15:01.574Z,10.20
2023-04-10T07:17:30.179Z,10.30
2023-04-10T07:19:58.801Z,10.40
2023-04-10T07:22:28.083Z,10.50
2023-04-10T07:24:56.520Z,10.60
2023-04-10T07:27:28.560Z,10.70
2023-04-10T07:29:58.684Z,10.80
2023-04-10T07:32:29.348Z,10.90
2023-04-10T07:35:00.846Z,11.00
2023-04-10T07:37:31.133Z,11.10
2023-04-10T07:40:01.080Z,11.20
2023-04-10T07:42:32.569Z,11.30
2023-04-10T07:45:02.684Z,11.40
2023-04-10T07:47:33.955Z,11.60
2023-04-10T07:50:04.324Z,11.70
2023-04-10T07:52:34.263Z,11.70
2023-04-10T07:55:04.595Z,11.70
2023-04-10T07:57:35.919Z,11.70
2023-04-10T08:00:06.787Z,11.70
2023-04-10T08:02:37.023Z,11.70
2023-04-10T08:05:07.646Z,11.70
2023-04-10T08:07:36.505Z,11.60
2023-04-10T08:10:05.172Z,11.70
2023-04-10T08:12:36.135Z,11.70
2023-04-10T08:15:04.820Z,11.70
2023-04-10T08:17:34.268Z,11.70
2023-04-10T08:20:02.656Z,11.70
2023-04-10T08:22:31.208Z,11.80
2023-04-10T08:24:59.653Z,11.90
2023-04-10T08:27:28.601Z,12.00
2023-04-10T08:29:58.698Z,12.10
2023-04-10T08:32:27.780Z,12.00
2023-04-10T08:34:56.302Z,12.10
2023-04-10T08:37:26.553Z,12.10
2023-04-10T08:39:55.355Z,12.10
2023-04-10T08:42:23.784Z,12.10
2023-04-10T08:44:52.724Z,12.10
2023-04-10T08:47:24.787Z,12.20
2023-04-10T08:49:57.620Z,12.30
2023-04-10T08:52:27.386Z,12.30
2023-04-10T08:54:57.633Z,12.30
2023-04-10T08:57:27.409Z,12.30
2023-04-10T08:59:56.422Z,12.30
2023-04-10T09:02:26.624Z,12.40
2023-04-10T09:04:56.911Z,12.40
2023-04-10T09:07:25.710Z,12.40
2023-04-10T09:09:54.154Z,12.40
2023-04-10T09:12:22.708Z,12.50
2023-04-10T09:14:53.461Z,12.50
2023-04-10T09:17:23.877Z,12.40
2023-04-10T09:19:54.920Z,12.50
2023-04-10T09:22:32.316Z,12.50
2023-04-10T09:25:02.112Z,12.60
2023-04-10T09:27:33.296Z,12.60
2023-04-10T09:30:01.997Z,12.70
2023-04-10T09:32:42.016Z,12.70
2023-04-10T09:35:14.084Z,12.80
2023-04-10T09:37:43.732Z,12.80
2023-04-10T09:40:22.255Z,12.80
2023-04-10T09:42:51.035Z,12.90
2023-04-10T09:45:22.559Z,13.00
2023-04-10T09:48:12.294Z,13.00
2023-04-10T09:50:42.279Z,13.00
2023-04-10T09:53:11.579Z,13.10
2023-04-10T09:55:40.849Z,13.20
2023-04-10T09:58:10.849Z,13.20
2023-04-10T10:00:42.040Z,13.30
2023-04-10T10:03:12.778Z,13.40
2023-04-10T10:05:44.621Z,13.40
2023-04-10T10:08:14.336Z,13.60
2023-04-10T10:10:48.213Z,13.70
2023-04-10T10:13:25.646Z,13.90
2023-04-10T10:16:03.216Z,13.90
2023-04-10T10:18:40.622Z,13.80
2023-04-10T10:21:11.941Z,13.90
2023-04-10T10:23:41.936Z,13.90
2023-04-10T10:26:11.695Z,13.90
2023-04-10T10:28:42.310Z,13.90
2023-04-10T10:31:12.771Z,14.10
2023-04-10T10:33:42.546Z,14.20
2023-04-10T10:36:14.135Z,14.40
2023-04-10T10:38:52.621Z,14.50
2023-04-10T10:41:28.392Z,14.60
2023-04-10T10:44:07.883Z,14.60
2023-04-10T10:46:44.243Z,14.60
2023-04-10T10:49:12.682Z,14.70
2023-04-10T10:51:50.866Z,14.80
2023-04-10T10:54:32.717Z,14.90
2023-04-10T10:57:01.939Z,14.90
2023-04-10T10:59:55.774Z,15.10
2023-04-10T11:02:25.208Z,15.10
2023-04-10T11:04:53.757Z,15.30
2023-04-10T11:07:23.952Z,15.40
2023-04-10T11:09:57.345Z,15.40
2023-04-10T11:12:26.717Z,15.40
2023-04-10T11:14:59.849Z,15.40
2023-04-10T11:17:51.846Z,15.40
2023-04-10T11:20:22.372Z,15.60
2023-04-10T11:23:12.506Z,15.50
2023-04-10T11:25:52.112Z,15.70
2023-04-10T11:28:39.685Z,15.80
2023-04-10T11:31:19.862Z,15.90
2023-04-10T11:33:49.640Z,16.20
2023-04-10T11:36:18.804Z,16.20
2023-04-10T11:39:02.621Z,16.40
2023-04-10T11:41:32.724Z,16.40
2023-04-10T11:44:02.813Z,16.60
2023-04-10T11:46:31.769Z,16.60
2023-04-10T11:49:01.287Z,16.60
2023-04-10T11:51:29.968Z,16.60
2023-04-10T11:54:11.258Z,16.70
2023-04-10T11:56:41.021Z,16.90
2023-04-10T11:59:14.492Z,16.90
2023-04-10T12:01:44.409Z,17.00
2023-04-10T12:04:17.201Z,17.00
2023-04-10T12:06:47.015Z,17.10
2023-04-10T12:09:18.099Z,17.00
2023-04-10T12:11:54.449Z,17.00
2023-04-10T12:14:24.210Z,17.00
2023-04-10T12:16:53.133Z,17.10
2023-04-10T12:19:23.752Z,17.10
2023-04-10T12:21:52.304Z,17.20
2023-04-10T12:24:44.202Z,17.20
2023-04-10T12:27:18.212Z,17.30
2023-04-10T12:29:46.939Z,17.30
2023-04-10T12:32:15.816Z,17.40
2023-04-10T12:34:50.860Z,17.30
2023-04-10T12:37:19.312Z,17.20
2023-04-10T12:39:49.192Z,17.10
2023-04-10T12:42:21.009Z,17.00
2023-04-10T12:44:54.741Z,16.90
2023-04-10T12:47:24.128Z,16.70
2023-04-10T12:50:09.115Z,16.60
2023-04-10T12:52:38.274Z,16.60
2023-04-10T12:55:13.551Z,16.50
2023-04-10T12:57:42.620Z,16.40
2023-04-10T13:00:12.961Z,16.30
2023-04-10T13:02:42.108Z,16.30
2023-04-10T13:05:11.661Z,16.20
2023-04-10T13:07:41.754Z,16.20
2023-04-10T13:10:12.049Z,16.20
2023-04-10T13:12:42.176Z,16.10
2023-04-10T13:15:12.477Z,16.10
2023-04-10T13:17:42.076Z,16.10
2023-04-10T13:20:11.905Z,16.10
2023-04-10T13:22:40.436Z,16.10
2023-04-10T13:25:09.370Z,16.00
2023-04-10T13:27:38.995Z,16.00
2023-04-10T13:30:08.907Z,15.90
2023-04-10T13:32:37.462Z,15.90
2023-04-10T13:35:06.364Z,15.90
2023-04-10T13:37:34.917Z,15.90
2023-04-10T13:40:05.373Z,15.90
2023-04-10T13:42:34.424Z,15.80
2023-04-10T13:45:06.364Z,15.80
2023-04-10T13:47:34.761Z,15.70
2023-04-10T13:50:03.011Z,15.70
2023-04-10T13:52:31.455Z,15.80
2023-04-10T13:54:59.895Z,15.80
2023-04-10T13:57:28.464Z,15.80
2023-04-10T13:59:57.138Z,15.80
2023-04-10T14:02:27.132Z,15.80
2023-04-10T14:04:55.694Z,15.80
2023-04-10T14:07:24.168Z,15.80
2023-04-10T14:09:53.536Z,15.60
2023-04-10T14:12:23.201Z,15.50
2023-04-10T14:14:51.856Z,15.40
2023-04-10T14:17:20.535Z,15.20
2023-04-10T14:19:51.866Z,15.10
2023-04-10T14:22:20.543Z,14.90
2023-04-10T14:24:49.882Z,14.80
2023-04-10T14:27:19.732Z,14.70
2023-04-10T14:29:54.631Z,14.50
2023-04-10T14:32:23.664Z,14.50
2023-04-10T14:34:53.484Z,14.40
2023-04-10T14:37:22.587Z,14.40
2023-04-10T14:39:51.401Z,14.40
2023-04-10T14:42:20.074Z,14.30
2023-04-10T14:44:48.621Z,14.30
2023-04-10T14:47:17.330Z,14.30
2023-04-10T14:49:45.988Z,14.20
2023-04-10T14:52:16.356Z,14.20
2023-04-10T14:54:44.909Z,14.10
2023-04-10T14:57:15.273Z,14.10
2023-04-10T14:59:44.349Z,14.00
2023-04-10T15:02:12.883Z,14.00
2023-04-10T15:04:41.345Z,14.00
2023-04-10T15:07:09.882Z,13.90
2023-04-10T15:09:40.953Z,13.80
2023-04-10T15:12:09.751Z,13.80
2023-04-10T15:14:38.204Z,13.70
2023-04-10T15:17:06.668Z,13.60
2023-04-10T15:19:35.442Z,13.50
2023-04-10T15:22:04.006Z,13.50
2023-04-10T15:24:39.862Z,13.50
2023-04-10T15:27:13.001Z,13.50
2023-04-10T15:29:44.319Z,13.40
2023-04-10T15:32:12.757Z,13.40
2023-04-10T15:34:41.319Z,13.40
2023-04-10T15:37:09.887Z,13.40
2023-04-10T15:39:38.588Z,13.40
2023-04-10T15:42:08.694Z,13.40
2023-04-10T15:44:38.349Z,13.40
2023-04-10T15:47:06.923Z,13.40
2023-04-10T15:49:38.193Z,13.40
2023-04-10T15:52:07.617Z,13.40
2023-04-10T15:54:36.285Z,13.40
2023-04-10T15:57:05.233Z,13.40
2023-04-10T15:59:34.496Z,13.30
2023-04-10T16:02:04.208Z,13.30
2023-04-10T16:04:33.128Z,13.20
2023-04-10T16:07:01.416Z,13.10
2023-04-10T16:09:29.966Z,13.00
2023-04-10T16:11:58.733Z,13.00
2023-04-10T16:14:27.654Z,12.90
2023-04-10T16:16:55.875Z,12.90
2023-04-10T16:19:25.748Z,12.80
2023-04-10T16:21:54.064Z,12.80
2023-04-10T16:24:22.376Z,12.80
2023-04-10T16:26:50.822Z,12.70
2023-04-10T16:29:19.995Z,12.70
2023-04-10T16:31:48.448Z,12.70
2023-04-10T16:34:17.364Z,12.60
2023-04-10T16:36:46.987Z,12.60
2023-04-10T16:39:15.312Z,12.60
2023-04-10T16:41:43.742Z,12.60
2023-04-10T16:44:12.086Z,12.50
2023-04-10T16:46:40.406Z,12.50
2023-04-10T16:49:08.728Z,12.50
2023-04-10T16:51:37.160Z,12.40
2023-04-10T16:54:07.159Z,12.40
2023-04-10T16:56:35.586Z,12.30
2023-04-10T16:59:04.147Z,12.30
2023-04-10T17:01:34.264Z,12.20
2023-04-10T17:04:02.819Z,12.20
2023-04-10T17:06:31.407Z,12.20
2023-04-10T17:08:59.724Z,12.10
2023-04-10T17:11:29.621Z,12.10
2023-04-10T17:13:58.039Z,12.10
2023-04-10T17:16:26.411Z,12.00
2023-04-10T17:18:54.800Z,12.00
2023-04-10T17:21:23.239Z,12.00
2023-04-10T17:23:51.445Z,12.00
2023-04-10T17:26:20.009Z,11.90
2023-04-10T17:28:49.773Z,11.90
2023-04-10T17:31:19.319Z,11.80
2023-04-10T17:33:47.725Z,11.80
2023-04-10T17:36:16.337Z,11.80
2023-04-10T17:38:44.727Z,11.80
2023-04-10T17:41:16.064Z,11.80
2023-04-10T17:43:44.534Z,11.80
2023-04-10T17:46:16.168Z,11.80
2023-04-10T17:48:45.392Z,11.80
2023-04-10T17:51:13.837Z,11.80
2023-04-10T17:53:42.100Z,11.80
2023-04-10T17:56:18.090Z,11.80
2023-04-10T17:58:46.429Z,11.80
2023-04-10T18:01:22.598Z,11.80
2023-04-10T18:03:51.166Z,11.80
2023-04-10T18:06:19.544Z,11.80
2023-04-10T18:08:47.858Z,11.80
2023-04-10T18:11:16.443Z,11.70
2023-04-10T18:13:44.863Z,11.70
2023-04-10T18:16:13.126Z,11.70
2023-04-10T18:18:43.105Z,11.70
2023-04-10T18:21:13.343Z,11.70
2023-04-10T18:23:41.979Z,11.70
2023-04-10T18:26:10.313Z,11.60
2023-04-10T18:28:38.978Z,11.60
2023-04-10T18:31:08.473Z,11.60
2023-04-10T18:33:36.838Z,11.60
2023-04-10T18:36:07.233Z,11.60
2023-04-10T18:38:36.658Z,11.60
2023-04-10T18:41:06.350Z,11.60
2023-04-10T18:43:34.564Z,11.50
2023-04-10T18:46:02.908Z,11.50
2023-04-10T18:48:31.314Z,11.50
2023-04-10T18:50:59.647Z,11.50
2023-04-10T18:53:29.392Z,11.50
2023-04-10T18:55:57.610Z,11.50
2023-04-10T18:58:26.051Z,11.50
2023-04-10T19:00:55.078Z,11.60
2023-04-10T19:03:24.011Z,11.60
2023-04-10T19:05:52.324Z,11.60
2023-04-10T19:08:20.757Z,11.60
2023-04-10T19:10:50.274Z,11.60
2023-04-10T19:13:18.475Z,11.60
2023-04-10T19:15:48.403Z,11.50
2023-04-10T19:18:16.823Z,11.60
2023-04-10T19:20:49.931Z,11.60
2023-04-10T19:23:19.936Z,11.50
2023-04-10T19:25:53.069Z,11.50
2023-04-10T19:28:23.087Z,11.50
2023-04-10T19:30:51.518Z,11.40
2023-04-10T19:33:20.773Z,11.40
2023-04-10T19:35:49.031Z,11.40
2023-04-10T19:38:17.551Z,11.40
2023-04-10T19:40:45.856Z,11.30
2023-04-10T19:43:15.512Z,11.30
2023-04-10T19:45:43.943Z,11.20
2023-04-10T19:48:12.389Z,11.20
2023-04-10T19:50:40.697Z,11.10
2023-04-10T19:53:11.178Z,11.10
2023-04-10T19:55:40.583Z,11.10
2023-04-10T19:58:13.308Z,11.10
2023-04-10T20:00:52.106Z,11.10
2023-04-10T20:03:26.729Z,11.10
2023-04-10T20:05:55.259Z,11.10
2023-04-10T20:08:23.775Z,11.20
2023-04-10T20:10:51.980Z,11.20
2023-04-10T20:13:20.409Z,11.20
2023-04-10T20:15:50.433Z,11.20
2023-04-10T20:18:19.091Z,11.20
2023-04-10T20:20:47.532Z,11.20
2023-04-10T20:23:15.872Z,11.20
2023-04-10T20:25:44.419Z,11.10
2023-04-10T20:28:12.735Z,11.20
2023-04-10T20:30:41.060Z,11.20
2023-04-10T20:33:10.697Z,11.20
2023-04-10T20:35:38.934Z,11.20
2023-04-10T20:38:07.123Z,11.10
2023-04-10T20:40:36.023Z,11.10
2023-04-10T20:43:10.887Z,11.10
2023-04-10T20:45:39.268Z,11.10
2023-04-10T20:48:09.494Z,11.10
2023-04-10T20:50:43.714Z,11.00
2023-04-10T20:53:13.102Z,10.90
2023-04-10T20:55:41.548Z,10.90
2023-04-10T20:58:09.743Z,10.80
2023-04-10T21:00:39.706Z,10.80
2023-04-10T21:03:08.520Z,10.80
2023-04-10T21:05:42.519Z,10.80
2023-04-10T21:08:11.438Z,10.70
2023-04-10T21:10:44.260Z,10.70
2023-04-10T21:13:14.332Z,10.60
2023-04-10T21:15:42.753Z,10.60
2023-04-10T21:18:11.228Z,10.60
2023-04-10T21:20:39.518Z,10.60
2023-04-10T21:23:09.169Z,10.70
2023-04-10T21:25:37.971Z,10.70
2023-04-10T21:28:06.279Z,10.70
2023-04-10T21:30:34.603Z,10.70
2023-04-10T21:33:03.186Z,10.70
2023-04-10T21:35:31.523Z,10.70
2023-04-10T21:38:02.134Z,10.70
2023-04-10T21:40:34.624Z,10.70
2023-04-10T21:43:03.302Z,10.70
2023-04-10T21:45:31.991Z,10.70
2023-04-10T21:48:00.824Z,10.70
2023-04-10T21:50:29.339Z,10.60
2023-04-10T21:52:57.776Z,10.60
2023-04-10T21:55:25.980Z,10.60
2023-04-10T21:57:55.624Z,10.60
2023-04-10T22:00:23.809Z,10.60
2023-04-10T22:02:52.936Z,10.70
2023-04-10T22:05:22.620Z,10.70
2023-04-10T22:07:50.954Z,10.70
2023-04-10T22:10:19.372Z,10.80
2023-04-10T22:12:48.804Z,10.80
2023-04-10T22:15:19.019Z,10.80
2023-04-10T22:17:47.553Z,10.80
2023-04-10T22:20:16.285Z,10.90
2023-04-10T22:22:44.590Z,10.80
2023-04-10T22:25:13.149Z,10.90
2023-04-10T22:27:41.462Z,10.90
2023-04-10T22:30:11.126Z,10.90
2023-04-10T22:32:40.688Z,10.30
2023-04-10T22:35:09.912Z,9.80
2023-04-10T22:37:38.229Z,9.60
2023-04-10T22:40:07.751Z,9.60
2023-04-10T22:42:36.073Z,9.50
2023-04-10T22:45:04.513Z,9.50
2023-04-10T22:47:32.828Z,9.50
2023-04-10T22:50:02.594Z,9.50
2023-04-10T22:52:30.918Z,9.40
2023-04-10T22:54:59.238Z,9.30
2023-04-10T22:57:27.477Z,9.30
2023-04-10T22:59:55.754Z,9.20
2023-04-10T23:02:24.179Z,9.20
2023-04-10T23:04:52.548Z,9.20
2023-04-10T23:07:22.062Z,9.20
2023-04-10T23:09:50.353Z,9.10
2023-04-10T23:12:18.682Z,9.10
2023-04-10T23:14:47.001Z,9.10
2023-04-10T23:17:15.440Z,9.00
2023-04-10T23:19:43.666Z,9.00
2023-04-10T23:22:12.733Z,8.90
2023-04-10T23:24:42.330Z,9.00
2023-04-10T23:27:10.531Z,9.00
2023-04-10T23:29:38.730Z,9.00
2023-04-10T23:32:08.009Z,9.00
2023-04-10T23:34:36.208Z,9.10
2023-04-10T23:37:04.409Z,9.10
2023-04-10T23:39:32.610Z,9.20
2023-04-10T23:42:02.501Z,9.40
2023-04-10T23:44:30.829Z,9.50
2023-04-10T23:46:59.064Z,9.50
2023-04-10T23:49:27.333Z,9.50
2023-04-10T23:51:55.660Z,9.50
2023-04-10T23:54:23.858Z,9.50
2023-04-10T23:56:52.056Z,9.60
2023-04-10T23:59:21.706Z,9.50
